Aeroporto :
LOGIN :

Iscrizione | Disclaimer

   EN    FR    IT 

 










Sommario :    VFR   VFR Marginale   IFR   IFR Intensivo   IFR Molto Intensivo
Visibilità : 
Base nubi : 
>= 8 km
>= 3000ft
5 / 8 km
1000 / 3000 ft
1500m / 5 km
500 / 1000 ft
800 / 1500m
200 / 500 ft
< 800m
< 200 ft
Simboli :   Temporali  Nebbia  Neve Forte  Precipitazioni Forti  Vento > 20 kt
SIGMETs :   Varie  Temporali  Ghiacco  Turbolenza  Onda orograficha  Ceneri Vulcaniche






- Altitudine del aeroporto : 203 ft
- Codice IATA : XMJ


LFBM - Mont-De-Marsan

ULTIMO METAR :
  • 191730Z AUTO 03003KT CAVOK 04/02 Q1016 BECMG 09010KT

METARs OBSOLETI :
  • 191700Z AUTO 05003KT 030V090 CAVOK 06/02 Q1016 NOSIG
  • 191630Z AUTO 06003KT CAVOK 07/02 Q1016 NOSIG
  • 191600Z AUTO 10005KT CAVOK 09/03 Q1016 NOSIG
  • 191530Z AUTO 10005KT 070V160 CAVOK 10/02 Q1016 NOSIG
  • 191500Z AUTO 09006KT CAVOK 10/03 Q1016 NOSIG

TAF TAF LFBM
Valido dal 19 a 15 ore il 20 a 15 ore UTC


191400Z 1915/2015 09010KT CAVOK
PROB30
TEMPO 2003/2008 1500 BCFG



MetMap, La meteo Aeronautica in un colpo d'occhio ! - Copyright ORBIFLY Dicembre 2007 - Disclaimer

ORBIFLY MET'MAP TEAM :

Programmazione e sviluppo : Alexandra Zaïnal
Concezione e sviluppo : Baudouin d'Aumeries
Co-Programmazione e sviluppo : Marc-Olivier Méhu
Supporto tecnico e logistico : Manuel Goepfert
Aiuto per la traduzione : Arnaldo La Scala

Contatto : metmap@orbifly.com




FONTI E CREDITI :

   NOAA